sensor_id;sensor_type;location;lat;lon;timestamp;pressure;altitude;pressure_sealevel;temperature
68440;BMP180;55421;51.600;5.718;2024-02-26T00:00:07;162665.20;;;5.60
68440;BMP180;55421;51.600;5.718;2024-02-26T00:02:38;162656.80;;;5.60
68440;BMP180;55421;51.600;5.718;2024-02-26T00:05:07;162656.00;;;5.60
68440;BMP180;55421;51.600;5.718;2024-02-26T00:07:34;162653.59;;;5.60
68440;BMP180;55421;51.600;5.718;2024-02-26T00:10:01;162660.41;;;5.60
68440;BMP180;55421;51.600;5.718;2024-02-26T00:12:27;162629.59;;;5.60
68440;BMP180;55421;51.600;5.718;2024-02-26T00:14:54;162674.41;;;5.62
68440;BMP180;55421;51.600;5.718;2024-02-26T00:17:20;162677.00;;;5.68
68440;BMP180;55421;51.600;5.718;2024-02-26T00:19:47;162676.59;;;5.68
68440;BMP180;55421;51.600;5.718;2024-02-26T00:22:13;162659.00;;;5.66
68440;BMP180;55421;51.600;5.718;2024-02-26T00:24:40;162672.20;;;5.62
68440;BMP180;55421;51.600;5.718;2024-02-26T00:27:07;162668.59;;;5.62
68440;BMP180;55421;51.600;5.718;2024-02-26T00:29:34;162671.00;;;5.60
68440;BMP180;55421;51.600;5.718;2024-02-26T00:32:00;162666.41;;;5.60
68440;BMP180;55421;51.600;5.718;2024-02-26T00:34:27;162666.20;;;5.60
68440;BMP180;55421;51.600;5.718;2024-02-26T00:36:54;162659.20;;;5.60
68440;BMP180;55421;51.600;5.718;2024-02-26T00:39:20;162652.00;;;5.60
68440;BMP180;55421;51.600;5.718;2024-02-26T00:41:47;162646.00;;;5.60
68440;BMP180;55421;51.600;5.718;2024-02-26T00:44:13;162643.20;;;5.60
68440;BMP180;55421;51.600;5.718;2024-02-26T00:46:39;162632.41;;;5.58
68440;BMP180;55421;51.600;5.718;2024-02-26T00:49:06;162630.00;;;5.54
68440;BMP180;55421;51.600;5.718;2024-02-26T00:51:32;162631.20;;;5.52
68440;BMP180;55421;51.600;5.718;2024-02-26T00:53:59;162630.00;;;5.52
68440;BMP180;55421;51.600;5.718;2024-02-26T00:56:25;162631.20;;;5.54
68440;BMP180;55421;51.600;5.718;2024-02-26T00:58:52;162632.41;;;5.54
68440;BMP180;55421;51.600;5.718;2024-02-26T01:01:18;162640.80;;;5.60
68440;BMP180;55421;51.600;5.718;2024-02-26T01:03:45;162643.20;;;5.60
68440;BMP180;55421;51.600;5.718;2024-02-26T01:06:12;162649.20;;;5.60
68440;BMP180;55421;51.600;5.718;2024-02-26T01:08:38;162655.59;;;5.60
68440;BMP180;55421;51.600;5.718;2024-02-26T01:11:05;162657.20;;;5.60
68440;BMP180;55421;51.600;5.718;2024-02-26T01:13:31;162653.20;;;5.60
68440;BMP180;55421;51.600;5.718;2024-02-26T01:15:58;162645.20;;;5.60
68440;BMP180;55421;51.600;5.718;2024-02-26T01:18:24;162632.41;;;5.52
68440;BMP180;55421;51.600;5.718;2024-02-26T01:20:51;162613.20;;;5.50
68440;BMP180;55421;51.600;5.718;2024-02-26T01:23:20;162602.00;;;5.50
68440;BMP180;55421;51.600;5.718;2024-02-26T01:25:47;162588.00;;;5.46
68440;BMP180;55421;51.600;5.718;2024-02-26T01:28:14;162581.20;;;5.40
68440;BMP180;55421;51.600;5.718;2024-02-26T01:30:40;162577.59;;;5.40
68440;BMP180;55421;51.600;5.718;2024-02-26T01:33:07;162580.00;;;5.40
68440;BMP180;55421;51.600;5.718;2024-02-26T01:35:33;162576.41;;;5.40
68440;BMP180;55421;51.600;5.718;2024-02-26T01:38:00;162578.80;;;5.40
68440;BMP180;55421;51.600;5.718;2024-02-26T01:40:27;162578.80;;;5.40
68440;BMP180;55421;51.600;5.718;2024-02-26T01:42:54;162578.80;;;5.40
68440;BMP180;55421;51.600;5.718;2024-02-26T01:45:20;162576.41;;;5.40
68440;BMP180;55421;51.600;5.718;2024-02-26T01:47:54;162574.00;;;5.40
68440;BMP180;55421;51.600;5.718;2024-02-26T01:50:21;162566.20;;;5.40
68440;BMP180;55421;51.600;5.718;2024-02-26T01:52:52;162560.00;;;5.40
68440;BMP180;55421;51.600;5.718;2024-02-26T01:55:22;162557.59;;;5.40
68440;BMP180;55421;51.600;5.718;2024-02-26T01:57:51;162557.41;;;5.40
68440;BMP180;55421;51.600;5.718;2024-02-26T02:00:20;162558.80;;;5.40
68440;BMP180;55421;51.600;5.718;2024-02-26T02:02:48;162553.80;;;5.38
68440;BMP180;55421;51.600;5.718;2024-02-26T02:05:16;162549.80;;;5.38
68440;BMP180;55421;51.600;5.718;2024-02-26T02:07:46;162549.80;;;5.32
68440;BMP180;55421;51.600;5.718;2024-02-26T02:10:19;162547.80;;;5.30
68440;BMP180;55421;51.600;5.718;2024-02-26T02:12:49;162539.41;;;5.30
68440;BMP180;55421;51.600;5.718;2024-02-26T02:15:15;162535.00;;;5.30
68440;BMP180;55421;51.600;5.718;2024-02-26T02:17:42;162534.20;;;5.30
68440;BMP180;55421;51.600;5.718;2024-02-26T02:20:15;162528.59;;;5.30
68440;BMP180;55421;51.600;5.718;2024-02-26T02:22:44;162527.00;;;5.30
68440;BMP180;55421;51.600;5.718;2024-02-26T02:25:11;162517.80;;;5.30
68440;BMP180;55421;51.600;5.718;2024-02-26T02:27:38;162514.59;;;5.28
68440;BMP180;55421;51.600;5.718;2024-02-26T02:30:07;162511.80;;;5.28
68440;BMP180;55421;51.600;5.718;2024-02-26T02:32:37;162501.80;;;5.22
68440;BMP180;55421;51.600;5.718;2024-02-26T02:35:05;162499.00;;;5.20
68440;BMP180;55421;51.600;5.718;2024-02-26T02:37:32;162487.80;;;5.20
68440;BMP180;55421;51.600;5.718;2024-02-26T02:39:58;162482.20;;;5.20
68440;BMP180;55421;51.600;5.718;2024-02-26T02:42:26;162473.80;;;5.20
68440;BMP180;55421;51.600;5.718;2024-02-26T02:44:52;162474.59;;;5.20
68440;BMP180;55421;51.600;5.718;2024-02-26T02:47:19;162464.59;;;5.20
68440;BMP180;55421;51.600;5.718;2024-02-26T02:49:45;162459.80;;;5.20
68440;BMP180;55421;51.600;5.718;2024-02-26T02:52:12;162449.41;;;5.12
68440;BMP180;55421;51.600;5.718;2024-02-26T02:54:39;162441.00;;;5.10
68440;BMP180;55421;51.600;5.718;2024-02-26T02:57:09;162435.20;;;5.10
68440;BMP180;55421;51.600;5.718;2024-02-26T02:59:37;162425.59;;;5.10
68440;BMP180;55421;51.600;5.718;2024-02-26T03:02:03;162423.00;;;5.10
68440;BMP180;55421;51.600;5.718;2024-02-26T03:04:31;162418.80;;;5.08
68440;BMP180;55421;51.600;5.718;2024-02-26T03:06:57;162413.59;;;5.06
68440;BMP180;55421;51.600;5.718;2024-02-26T03:09:24;162406.00;;;5.00
68440;BMP180;55421;51.600;5.718;2024-02-26T03:11:51;162404.80;;;5.00
68440;BMP180;55421;51.600;5.718;2024-02-26T03:14:17;162406.00;;;5.00
68440;BMP180;55421;51.600;5.718;2024-02-26T03:16:44;162400.00;;;5.00
68440;BMP180;55421;51.600;5.718;2024-02-26T03:19:10;162403.59;;;5.00
68440;BMP180;55421;51.600;5.718;2024-02-26T03:21:37;162405.59;;;5.00
68440;BMP180;55421;51.600;5.718;2024-02-26T03:24:04;162398.80;;;5.00
68440;BMP180;55421;51.600;5.718;2024-02-26T03:26:31;162400.00;;;5.00
68440;BMP180;55421;51.600;5.718;2024-02-26T03:28:57;162395.20;;;5.00
68440;BMP180;55421;51.600;5.718;2024-02-26T03:31:24;162394.00;;;5.00
68440;BMP180;55421;51.600;5.718;2024-02-26T03:33:50;162394.00;;;5.00
68440;BMP180;55421;51.600;5.718;2024-02-26T03:36:17;162392.00;;;5.00
68440;BMP180;55421;51.600;5.718;2024-02-26T03:38:43;162390.41;;;5.00
68440;BMP180;55421;51.600;5.718;2024-02-26T03:41:10;162392.41;;;5.00
68440;BMP180;55421;51.600;5.718;2024-02-26T03:43:36;162392.00;;;5.00
68440;BMP180;55421;51.600;5.718;2024-02-26T03:46:03;162393.20;;;5.00
68440;BMP180;55421;51.600;5.718;2024-02-26T03:48:29;162396.41;;;5.00
68440;BMP180;55421;51.600;5.718;2024-02-26T03:50:56;162396.41;;;5.00
68440;BMP180;55421;51.600;5.718;2024-02-26T03:53:23;162394.00;;;5.00
68440;BMP180;55421;51.600;5.718;2024-02-26T03:55:49;162400.00;;;5.00
68440;BMP180;55421;51.600;5.718;2024-02-26T03:58:18;162400.00;;;5.00
68440;BMP180;55421;51.600;5.718;2024-02-26T04:00:45;162402.41;;;5.00
68440;BMP180;55421;51.600;5.718;2024-02-26T04:03:13;162398.80;;;5.00
68440;BMP180;55421;51.600;5.718;2024-02-26T04:05:40;162398.80;;;5.00
68440;BMP180;55421;51.600;5.718;2024-02-26T04:08:06;162394.00;;;5.00
68440;BMP180;55421;51.600;5.718;2024-02-26T04:10:34;162388.41;;;5.00
68440;BMP180;55421;51.600;5.718;2024-02-26T04:13:07;162377.59;;;5.00
68440;BMP180;55421;51.600;5.718;2024-02-26T04:15:34;162364.00;;;4.90
68440;BMP180;55421;51.600;5.718;2024-02-26T04:18:01;162354.80;;;4.90
68440;BMP180;55421;51.600;5.718;2024-02-26T04:20:29;162342.00;;;4.90
68440;BMP180;55421;51.600;5.718;2024-02-26T04:22:55;162331.20;;;4.84
68440;BMP180;55421;51.600;5.718;2024-02-26T04:25:21;162321.20;;;4.80
68440;BMP180;55421;51.600;5.718;2024-02-26T04:27:48;162311.20;;;4.80
68440;BMP180;55421;51.600;5.718;2024-02-26T04:30:15;162299.41;;;4.80
68440;BMP180;55421;51.600;5.718;2024-02-26T04:32:41;162287.41;;;4.80
68440;BMP180;55421;51.600;5.718;2024-02-26T04:35:08;162279.80;;;4.70
68440;BMP180;55421;51.600;5.718;2024-02-26T04:37:35;162271.41;;;4.70
68440;BMP180;55421;51.600;5.718;2024-02-26T04:40:01;162269.80;;;4.70
68440;BMP180;55421;51.600;5.718;2024-02-26T04:42:29;162269.00;;;4.70
68440;BMP180;55421;51.600;5.718;2024-02-26T04:44:55;162267.41;;;4.70
68440;BMP180;55421;51.600;5.718;2024-02-26T04:47:22;162260.59;;;4.70
68440;BMP180;55421;51.600;5.718;2024-02-26T04:49:50;162260.59;;;4.70
68440;BMP180;55421;51.600;5.718;2024-02-26T04:52:18;162259.80;;;4.70
68440;BMP180;55421;51.600;5.718;2024-02-26T04:54:44;162267.80;;;4.70
68440;BMP180;55421;51.600;5.718;2024-02-26T04:57:11;162265.41;;;4.70
68440;BMP180;55421;51.600;5.718;2024-02-26T04:59:37;162266.59;;;4.70
68440;BMP180;55421;51.600;5.718;2024-02-26T05:02:04;162264.20;;;4.70
68440;BMP180;55421;51.600;5.718;2024-02-26T05:04:30;162261.80;;;4.70
68440;BMP180;55421;51.600;5.718;2024-02-26T05:06:57;162266.59;;;4.70
68440;BMP180;55421;51.600;5.718;2024-02-26T05:09:23;162266.20;;;4.70
68440;BMP180;55421;51.600;5.718;2024-02-26T05:11:50;162269.00;;;4.70
68440;BMP180;55421;51.600;5.718;2024-02-26T05:14:16;162269.00;;;4.70
68440;BMP180;55421;51.600;5.718;2024-02-26T05:16:43;162272.20;;;4.70
68440;BMP180;55421;51.600;5.718;2024-02-26T05:19:09;162275.00;;;4.70
68440;BMP180;55421;51.600;5.718;2024-02-26T05:21:36;162281.80;;;4.70
68440;BMP180;55421;51.600;5.718;2024-02-26T05:24:02;162286.59;;;4.72
68440;BMP180;55421;51.600;5.718;2024-02-26T05:26:29;162287.41;;;4.76
68440;BMP180;55421;51.600;5.718;2024-02-26T05:28:55;162298.20;;;4.80
68440;BMP180;55421;51.600;5.718;2024-02-26T05:31:26;162301.80;;;4.80
68440;BMP180;55421;51.600;5.718;2024-02-26T05:33:54;162303.00;;;4.80
68440;BMP180;55421;51.600;5.718;2024-02-26T05:36:21;162303.00;;;4.80
68440;BMP180;55421;51.600;5.718;2024-02-26T05:38:48;162303.00;;;4.80
68440;BMP180;55421;51.600;5.718;2024-02-26T05:41:16;162305.59;;;4.80
68440;BMP180;55421;51.600;5.718;2024-02-26T05:43:46;162307.41;;;4.80
68440;BMP180;55421;51.600;5.718;2024-02-26T05:46:12;162305.59;;;4.80
68440;BMP180;55421;51.600;5.718;2024-02-26T05:48:39;162303.00;;;4.80
68440;BMP180;55421;51.600;5.718;2024-02-26T05:51:06;162309.59;;;4.80
68440;BMP180;55421;51.600;5.718;2024-02-26T05:53:32;162304.80;;;4.80
68440;BMP180;55421;51.600;5.718;2024-02-26T05:55:59;162307.41;;;4.80
68440;BMP180;55421;51.600;5.718;2024-02-26T05:58:25;162307.41;;;4.80
68440;BMP180;55421;51.600;5.718;2024-02-26T06:00:51;162298.20;;;4.80
68440;BMP180;55421;51.600;5.718;2024-02-26T06:03:18;162293.41;;;4.78
68440;BMP180;55421;51.600;5.718;2024-02-26T06:05:45;162286.59;;;4.76
68440;BMP180;55421;51.600;5.718;2024-02-26T06:08:12;162278.59;;;4.70
68440;BMP180;55421;51.600;5.718;2024-02-26T06:10:39;162271.41;;;4.70
68440;BMP180;55421;51.600;5.718;2024-02-26T06:13:06;162269.80;;;4.70
68440;BMP180;55421;51.600;5.718;2024-02-26T06:15:32;162263.41;;;4.70
68440;BMP180;55421;51.600;5.718;2024-02-26T06:17:59;162257.00;;;4.70
68440;BMP180;55421;51.600;5.718;2024-02-26T06:20:25;162253.00;;;4.70
68440;BMP180;55421;51.600;5.718;2024-02-26T06:22:52;162254.59;;;4.70
68440;BMP180;55421;51.600;5.718;2024-02-26T06:25:18;162253.41;;;4.70
68440;BMP180;55421;51.600;5.718;2024-02-26T06:27:45;162244.20;;;4.62
68440;BMP180;55421;51.600;5.718;2024-02-26T06:30:12;162236.20;;;4.60
68440;BMP180;55421;51.600;5.718;2024-02-26T06:32:38;162228.59;;;4.60
68440;BMP180;55421;51.600;5.718;2024-02-26T06:35:05;162219.00;;;4.60
68440;BMP180;55421;51.600;5.718;2024-02-26T06:37:35;162205.00;;;4.60
68440;BMP180;55421;51.600;5.718;2024-02-26T06:40:03;162193.41;;;4.56
68440;BMP180;55421;51.600;5.718;2024-02-26T06:42:30;162189.00;;;4.50
68440;BMP180;55421;51.600;5.718;2024-02-26T06:44:57;162188.20;;;4.50
68440;BMP180;55421;51.600;5.718;2024-02-26T06:47:23;162184.00;;;4.50
68440;BMP180;55421;51.600;5.718;2024-02-26T06:49:50;162178.59;;;4.50
68440;BMP180;55421;51.600;5.718;2024-02-26T06:52:18;162170.00;;;4.50
68440;BMP180;55421;51.600;5.718;2024-02-26T06:54:45;162166.00;;;4.50
68440;BMP180;55421;51.600;5.718;2024-02-26T06:57:14;162160.00;;;4.44
68440;BMP180;55421;51.600;5.718;2024-02-26T06:59:40;162158.80;;;4.46
68440;BMP180;55421;51.600;5.718;2024-02-26T07:02:13;162163.59;;;4.48
68440;BMP180;55421;51.600;5.718;2024-02-26T07:04:39;162160.00;;;4.48
68440;BMP180;55421;51.600;5.718;2024-02-26T07:07:07;162155.20;;;4.44
68440;BMP180;55421;51.600;5.718;2024-02-26T07:09:34;162154.41;;;4.40
68440;BMP180;55421;51.600;5.718;2024-02-26T07:12:00;162149.20;;;4.40
68440;BMP180;55421;51.600;5.718;2024-02-26T07:14:27;162142.41;;;4.40
68440;BMP180;55421;51.600;5.718;2024-02-26T07:16:54;162140.41;;;4.40
68440;BMP180;55421;51.600;5.718;2024-02-26T07:19:20;162138.00;;;4.40
68440;BMP180;55421;51.600;5.718;2024-02-26T07:21:47;162136.80;;;4.40
68440;BMP180;55421;51.600;5.718;2024-02-26T07:24:13;162140.41;;;4.40
68440;BMP180;55421;51.600;5.718;2024-02-26T07:26:40;162143.59;;;4.40
68440;BMP180;55421;51.600;5.718;2024-02-26T07:29:07;162148.00;;;4.40
68440;BMP180;55421;51.600;5.718;2024-02-26T07:31:33;162140.41;;;4.40
68440;BMP180;55421;51.600;5.718;2024-02-26T07:34:00;162154.41;;;4.40
68440;BMP180;55421;51.600;5.718;2024-02-26T07:36:26;162157.59;;;4.42
68440;BMP180;55421;51.600;5.718;2024-02-26T07:38:53;162158.80;;;4.44
68440;BMP180;55421;51.600;5.718;2024-02-26T07:41:20;162166.00;;;4.48
68440;BMP180;55421;51.600;5.718;2024-02-26T07:43:47;162166.00;;;4.50
68440;BMP180;55421;51.600;5.718;2024-02-26T07:46:14;162168.00;;;4.50
68440;BMP180;55421;51.600;5.718;2024-02-26T07:48:41;162170.41;;;4.50
68440;BMP180;55421;51.600;5.718;2024-02-26T07:51:08;162173.41;;;4.50
68440;BMP180;55421;51.600;5.718;2024-02-26T07:53:34;162179.80;;;4.50
68440;BMP180;55421;51.600;5.718;2024-02-26T07:56:01;162181.59;;;4.50
68440;BMP180;55421;51.600;5.718;2024-02-26T07:58:27;162186.00;;;4.50
68440;BMP180;55421;51.600;5.718;2024-02-26T08:00:54;162183.80;;;4.50
68440;BMP180;55421;51.600;5.718;2024-02-26T08:03:20;162183.80;;;4.50
68440;BMP180;55421;51.600;5.718;2024-02-26T08:05:47;162187.00;;;4.50
68440;BMP180;55421;51.600;5.718;2024-02-26T08:08:13;162190.20;;;4.50
68440;BMP180;55421;51.600;5.718;2024-02-26T08:10:40;162198.20;;;4.52
68440;BMP180;55421;51.600;5.718;2024-02-26T08:13:06;162203.80;;;4.60
68440;BMP180;55421;51.600;5.718;2024-02-26T08:15:35;162214.20;;;4.60
68440;BMP180;55421;51.600;5.718;2024-02-26T08:18:02;162230.59;;;4.60
68440;BMP180;55421;51.600;5.718;2024-02-26T08:20:30;162231.80;;;4.60
68440;BMP180;55421;51.600;5.718;2024-02-26T08:22:57;162234.20;;;4.60
68440;BMP180;55421;51.600;5.718;2024-02-26T08:25:24;162237.41;;;4.60
68440;BMP180;55421;51.600;5.718;2024-02-26T08:27:51;162247.80;;;4.62
68440;BMP180;55421;51.600;5.718;2024-02-26T08:30:17;162249.41;;;4.64
68440;BMP180;55421;51.600;5.718;2024-02-26T08:32:45;162252.20;;;4.68
68440;BMP180;55421;51.600;5.718;2024-02-26T08:35:12;162248.59;;;4.68
68440;BMP180;55421;51.600;5.718;2024-02-26T08:37:39;162250.20;;;4.66
68440;BMP180;55421;51.600;5.718;2024-02-26T08:40:07;162248.59;;;4.62
68440;BMP180;55421;51.600;5.718;2024-02-26T08:42:33;162244.20;;;4.62
68440;BMP180;55421;51.600;5.718;2024-02-26T08:45:01;162244.20;;;4.60
68440;BMP180;55421;51.600;5.718;2024-02-26T08:47:28;162238.59;;;4.60
68440;BMP180;55421;51.600;5.718;2024-02-26T08:49:55;162239.80;;;4.60
68440;BMP180;55421;51.600;5.718;2024-02-26T08:52:22;162236.20;;;4.60
68440;BMP180;55421;51.600;5.718;2024-02-26T08:54:49;162236.59;;;4.60
68440;BMP180;55421;51.600;5.718;2024-02-26T08:57:16;162237.41;;;4.60
68440;BMP180;55421;51.600;5.718;2024-02-26T09:00:21;162237.41;;;4.60
68440;BMP180;55421;51.600;5.718;2024-02-26T09:02:56;162242.20;;;4.60
68440;BMP180;55421;51.600;5.718;2024-02-26T09:05:23;162236.20;;;4.60
68440;BMP180;55421;51.600;5.718;2024-02-26T09:07:49;162237.41;;;4.60
68440;BMP180;55421;51.600;5.718;2024-02-26T09:10:18;162244.20;;;4.62
68440;BMP180;55421;51.600;5.718;2024-02-26T09:12:44;162246.20;;;4.64
68440;BMP180;55421;51.600;5.718;2024-02-26T09:15:11;162247.00;;;4.66
68440;BMP180;55421;51.600;5.718;2024-02-26T09:17:38;162250.20;;;4.68
68440;BMP180;55421;51.600;5.718;2024-02-26T09:20:05;162254.59;;;4.68
68440;BMP180;55421;51.600;5.718;2024-02-26T09:22:32;162264.20;;;4.70
68440;BMP180;55421;51.600;5.718;2024-02-26T09:24:58;162268.59;;;4.70
68440;BMP180;55421;51.600;5.718;2024-02-26T09:27:25;162269.80;;;4.70
68440;BMP180;55421;51.600;5.718;2024-02-26T09:29:51;162269.80;;;4.70
68440;BMP180;55421;51.600;5.718;2024-02-26T09:32:18;162271.00;;;4.70
68440;BMP180;55421;51.600;5.718;2024-02-26T09:34:44;162269.00;;;4.70
68440;BMP180;55421;51.600;5.718;2024-02-26T09:37:11;162274.20;;;4.70
68440;BMP180;55421;51.600;5.718;2024-02-26T09:39:39;162276.59;;;4.70
68440;BMP180;55421;51.600;5.718;2024-02-26T09:42:05;162281.41;;;4.76
68440;BMP180;55421;51.600;5.718;2024-02-26T09:44:40;162291.41;;;4.74
68440;BMP180;55421;51.600;5.718;2024-02-26T09:47:13;162292.59;;;4.80
68440;BMP180;55421;51.600;5.718;2024-02-26T09:49:42;162295.00;;;4.80
68440;BMP180;55421;51.600;5.718;2024-02-26T09:52:09;162295.80;;;4.80
68440;BMP180;55421;51.600;5.718;2024-02-26T09:54:36;162301.80;;;4.80
68440;BMP180;55421;51.600;5.718;2024-02-26T09:57:03;162303.00;;;4.80
68440;BMP180;55421;51.600;5.718;2024-02-26T09:59:39;162300.59;;;4.80
68440;BMP180;55421;51.600;5.718;2024-02-26T10:02:13;162307.41;;;4.80
68440;BMP180;55421;51.600;5.718;2024-02-26T10:04:41;162312.59;;;4.80
68440;BMP180;55421;51.600;5.718;2024-02-26T10:07:13;162318.00;;;4.80
68440;BMP180;55421;51.600;5.718;2024-02-26T10:09:40;162321.20;;;4.80
68440;BMP180;55421;51.600;5.718;2024-02-26T10:12:10;162320.80;;;4.80
68440;BMP180;55421;51.600;5.718;2024-02-26T10:14:38;162320.00;;;4.80
68440;BMP180;55421;51.600;5.718;2024-02-26T10:17:07;162324.41;;;4.80
68440;BMP180;55421;51.600;5.718;2024-02-26T10:19:34;162324.80;;;4.80
68440;BMP180;55421;51.600;5.718;2024-02-26T10:22:01;162326.80;;;4.80
68440;BMP180;55421;51.600;5.718;2024-02-26T10:24:30;162331.20;;;4.84
68440;BMP180;55421;51.600;5.718;2024-02-26T10:26:57;162331.20;;;4.86
68440;BMP180;55421;51.600;5.718;2024-02-26T10:29:25;162336.41;;;4.90
68440;BMP180;55421;51.600;5.718;2024-02-26T10:31:54;162348.80;;;4.90
68440;BMP180;55421;51.600;5.718;2024-02-26T10:34:20;162350.00;;;4.90
68440;BMP180;55421;51.600;5.718;2024-02-26T10:36:47;162354.80;;;4.90
68440;BMP180;55421;51.600;5.718;2024-02-26T10:39:14;162358.41;;;4.90
68440;BMP180;55421;51.600;5.718;2024-02-26T10:41:42;162354.80;;;4.90
68440;BMP180;55421;51.600;5.718;2024-02-26T10:44:12;162346.41;;;4.90
68440;BMP180;55421;51.600;5.718;2024-02-26T10:46:42;162350.00;;;4.90
68440;BMP180;55421;51.600;5.718;2024-02-26T10:49:14;162346.80;;;4.90
68440;BMP180;55421;51.600;5.718;2024-02-26T10:51:47;162346.41;;;4.90
68440;BMP180;55421;51.600;5.718;2024-02-26T10:54:16;162346.41;;;4.90
68440;BMP180;55421;51.600;5.718;2024-02-26T10:56:43;162348.80;;;4.90
68440;BMP180;55421;51.600;5.718;2024-02-26T10:59:10;162351.20;;;4.90
68440;BMP180;55421;51.600;5.718;2024-02-26T11:01:39;162357.20;;;4.90
68440;BMP180;55421;51.600;5.718;2024-02-26T11:04:10;162364.80;;;4.90
68440;BMP180;55421;51.600;5.718;2024-02-26T11:06:37;162362.41;;;4.90
68440;BMP180;55421;51.600;5.718;2024-02-26T11:09:05;162361.59;;;4.90
68440;BMP180;55421;51.600;5.718;2024-02-26T11:11:34;162367.59;;;4.90
68440;BMP180;55421;51.600;5.718;2024-02-26T11:14:04;162372.41;;;4.98
68440;BMP180;55421;51.600;5.718;2024-02-26T11:16:35;162374.00;;;4.98
68440;BMP180;55421;51.600;5.718;2024-02-26T11:19:02;162374.80;;;4.98
68440;BMP180;55421;51.600;5.718;2024-02-26T11:21:29;162377.20;;;4.98
68440;BMP180;55421;51.600;5.718;2024-02-26T11:24:11;162373.59;;;4.92
68440;BMP180;55421;51.600;5.718;2024-02-26T11:26:49;162370.00;;;4.94
68440;BMP180;55421;51.600;5.718;2024-02-26T11:29:21;162375.59;;;4.92
68440;BMP180;55421;51.600;5.718;2024-02-26T11:31:48;162378.00;;;5.00
68440;BMP180;55421;51.600;5.718;2024-02-26T11:34:17;162384.80;;;5.00
68440;BMP180;55421;51.600;5.718;2024-02-26T11:36:45;162378.41;;;5.00
68440;BMP180;55421;51.600;5.718;2024-02-26T11:39:12;162380.41;;;5.00
68440;BMP180;55421;51.600;5.718;2024-02-26T11:41:43;162384.80;;;5.00
68440;BMP180;55421;51.600;5.718;2024-02-26T11:44:10;162391.20;;;5.00
68440;BMP180;55421;51.600;5.718;2024-02-26T11:46:41;162389.20;;;5.00
68440;BMP180;55421;51.600;5.718;2024-02-26T11:51:55;162394.00;;;5.00
68440;BMP180;55421;51.600;5.718;2024-02-26T11:54:51;162402.41;;;5.00
68440;BMP180;55421;51.600;5.718;2024-02-26T11:57:29;162406.00;;;5.00
68440;BMP180;55421;51.600;5.718;2024-02-26T12:00:17;162416.41;;;5.02
68440;BMP180;55421;51.600;5.718;2024-02-26T12:02:55;162429.59;;;5.10
68440;BMP180;55421;51.600;5.718;2024-02-26T12:05:32;162436.80;;;5.10
68440;BMP180;55421;51.600;5.718;2024-02-26T12:08:02;162446.20;;;5.10
68440;BMP180;55421;51.600;5.718;2024-02-26T12:13:08;162462.20;;;5.16
68440;BMP180;55421;51.600;5.718;2024-02-26T12:18:18;162468.20;;;5.20
68440;BMP180;55421;51.600;5.718;2024-02-26T12:20:45;162475.41;;;5.20
68440;BMP180;55421;51.600;5.718;2024-02-26T12:23:16;162479.00;;;5.20
68440;BMP180;55421;51.600;5.718;2024-02-26T12:25:46;162477.00;;;5.20
68440;BMP180;55421;51.600;5.718;2024-02-26T12:28:15;162474.20;;;5.20
68440;BMP180;55421;51.600;5.718;2024-02-26T12:30:41;162472.20;;;5.20
68440;BMP180;55421;51.600;5.718;2024-02-26T12:33:08;162471.41;;;5.20
68440;BMP180;55421;51.600;5.718;2024-02-26T12:35:35;162473.41;;;5.20
68440;BMP180;55421;51.600;5.718;2024-02-26T12:38:03;162467.00;;;5.20
68440;BMP180;55421;51.600;5.718;2024-02-26T12:40:31;162463.41;;;5.20
68440;BMP180;55421;51.600;5.718;2024-02-26T12:42:58;162453.00;;;5.10
68440;BMP180;55421;51.600;5.718;2024-02-26T12:45:25;162446.59;;;5.10
68440;BMP180;55421;51.600;5.718;2024-02-26T12:47:52;162442.20;;;5.10
68440;BMP180;55421;51.600;5.718;2024-02-26T12:50:19;162441.00;;;5.10
68440;BMP180;55421;51.600;5.718;2024-02-26T12:52:47;162439.80;;;5.10
68440;BMP180;55421;51.600;5.718;2024-02-26T12:55:18;162437.41;;;5.10
68440;BMP180;55421;51.600;5.718;2024-02-26T12:57:45;162433.00;;;5.10
68440;BMP180;55421;51.600;5.718;2024-02-26T13:00:16;162422.00;;;5.10
68440;BMP180;55421;51.600;5.718;2024-02-26T13:02:45;162423.20;;;5.10
68440;BMP180;55421;51.600;5.718;2024-02-26T13:05:14;162414.00;;;5.04
68440;BMP180;55421;51.600;5.718;2024-02-26T13:07:42;162406.00;;;5.00
68440;BMP180;55421;51.600;5.718;2024-02-26T13:10:10;162403.59;;;5.00
68440;BMP180;55421;51.600;5.718;2024-02-26T13:12:45;162395.20;;;5.00
68440;BMP180;55421;51.600;5.718;2024-02-26T13:15:18;162394.00;;;5.00
68440;BMP180;55421;51.600;5.718;2024-02-26T13:17:46;162392.00;;;5.00
68440;BMP180;55421;51.600;5.718;2024-02-26T13:20:13;162388.41;;;5.00
68440;BMP180;55421;51.600;5.718;2024-02-26T13:22:50;162389.20;;;5.00
68440;BMP180;55421;51.600;5.718;2024-02-26T13:25:20;162393.20;;;5.00
68440;BMP180;55421;51.600;5.718;2024-02-26T13:27:47;162383.59;;;5.00
68440;BMP180;55421;51.600;5.718;2024-02-26T13:30:13;162389.20;;;5.00
68440;BMP180;55421;51.600;5.718;2024-02-26T13:32:41;162384.00;;;5.00
68440;BMP180;55421;51.600;5.718;2024-02-26T13:35:11;162389.20;;;5.00
68440;BMP180;55421;51.600;5.718;2024-02-26T13:37:39;162386.80;;;5.00
68440;BMP180;55421;51.600;5.718;2024-02-26T13:40:09;162387.20;;;5.00
68440;BMP180;55421;51.600;5.718;2024-02-26T13:42:39;162388.00;;;5.00
68440;BMP180;55421;51.600;5.718;2024-02-26T13:45:06;162388.00;;;5.00
68440;BMP180;55421;51.600;5.718;2024-02-26T13:47:36;162394.00;;;5.00
68440;BMP180;55421;51.600;5.718;2024-02-26T13:50:03;162396.41;;;5.00
68440;BMP180;55421;51.600;5.718;2024-02-26T13:52:30;162403.59;;;5.00
68440;BMP180;55421;51.600;5.718;2024-02-26T13:54:59;162406.00;;;5.00
68440;BMP180;55421;51.600;5.718;2024-02-26T13:57:26;162410.41;;;5.00
68440;BMP180;55421;51.600;5.718;2024-02-26T13:59:53;162412.80;;;5.00
68440;BMP180;55421;51.600;5.718;2024-02-26T14:02:20;162420.80;;;5.06
68440;BMP180;55421;51.600;5.718;2024-02-26T14:04:47;162417.59;;;5.06
68440;BMP180;55421;51.600;5.718;2024-02-26T14:07:13;162422.00;;;5.10
68440;BMP180;55421;51.600;5.718;2024-02-26T14:09:40;162425.59;;;5.10
68440;BMP180;55421;51.600;5.718;2024-02-26T14:12:07;162423.20;;;5.10
68440;BMP180;55421;51.600;5.718;2024-02-26T14:14:34;162429.59;;;5.10
68440;BMP180;55421;51.600;5.718;2024-02-26T14:17:04;162430.20;;;5.10
68440;BMP180;55421;51.600;5.718;2024-02-26T14:19:32;162437.41;;;5.10